Terminal Aerodrome Forecast
Issued by NWS Charleston, WV

Current Version | Previous Version | Text Only | Print | Product List | Glossary Off
Versions: 1 2 3 4 5 6 7 8 9 10 11 12 13 14 15 16 17 18 19 20 21 22

000
FTUS41 KRLX 251120
TAFEKN
TAF
KEKN 251120Z 2512/2612 21004KT P6SM SCT250
     FM251800 26004KT P6SM SCT045
     FM260500 20006KT P6SM BKN050
     FM260800 20007KT 5SM BR BKN045=

USA.gov is the U.S. government's official web portal to all federal, state and local government web resources and services.